Time;durP1;ratioP1;P1;durP2;ratioP2;P2;SDS_P1;SDS_P2;PMS_P1;PMS_P2;Temp;Humidity;BMP_temperature;BMP_pressure;BME280_temperature;BME280_humidity;BME280_pressure;Samples;Min_cycle;Max_cycle;Signal;HPM_P1;HPM_P2
2021/06/24 06:03:26;;;;;;;11.28;8.90;;;;;;;21.42;78.81;98744.61;262348;1092;22783;-73
2021/06/24 06:08:30;;;;;;;10.53;8.35;;;;;;;21.69;78.01;98722.91;262313;1092;25974;-71
2021/06/24 06:13:34;;;;;;;9.35;7.98;;;;;;;22.17;77.71;98719.74;262285;1091;25887;-70
2021/06/24 06:18:38;;;;;;;13.50;8.95;;;;;;;22.66;76.62;98712.64;262469;1092;22730;-71
2021/06/24 06:23:42;;;;;;;14.40;10.25;;;;;;;23.07;75.74;98708.05;262396;1091;27150;-71
2021/06/24 06:28:45;;;;;;;9.28;8.18;;;;;;;23.57;75.16;98718.73;262219;1092;25986;-71
2021/06/24 06:33:48;;;;;;;11.27;9.33;;;;;;;24.00;73.68;98721.03;262386;1092;23398;-71
2021/06/24 06:38:53;;;;;;;12.20;10.90;;;;;;;24.25;72.77;98715.73;262549;1092;26141;-71
2021/06/24 06:43:56;;;;;;;15.77;12.70;;;;;;;24.40;72.04;98711.13;262552;1092;23400;-71
2021/06/24 06:49:00;;;;;;;14.90;13.05;;;;;;;24.56;71.47;98704.56;262747;1092;23613;-71
2021/06/24 06:54:03;;;;;;;15.68;13.90;;;;;;;24.69;71.05;98707.77;269153;1092;23653;-70
2021/06/24 06:59:07;;;;;;;21.03;16.00;;;;;;;24.90;70.69;98724.30;269276;1092;22595;-71
2021/06/24 07:04:10;;;;;;;22.75;20.20;;;;;;;25.16;69.89;98735.34;265954;1092;23381;-70
2021/06/24 07:09:13;;;;;;;28.33;23.83;;;;;;;25.15;69.82;98731.02;263095;1092;23395;-70
2021/06/24 07:14:18;;;;;;;28.63;24.85;;;;;;;25.22;69.35;98739.26;266869;1092;25970;-70
2021/06/24 07:19:22;;;;;;;31.00;25.30;;;;;;;25.43;69.77;98731.09;264119;1091;23544;-72
2021/06/24 07:24:38;;;;;;;28.68;25.25;;;;;;;25.55;69.32;98731.92;262442;1092;22781;-70
2021/06/24 07:29:42;;;;;;;28.78;25.18;;;;;;;25.70;68.92;98738.98;260318;1093;26083;-70
2021/06/24 07:34:45;;;;;;;30.88;27.20;;;;;;;25.87;68.48;98744.84;260678;1091;25887;-71
2021/06/24 07:39:50;;;;;;;30.33;26.80;;;;;;;25.96;67.95;98751.50;262032;1092;26302;-70
2021/06/24 07:45:05;;;;;;;30.48;27.15;;;;;;;25.89;67.38;98756.22;262451;1093;22814;-70
2021/06/24 07:50:24;;;;;;;33.78;28.30;;;;;;;25.95;67.75;98763.67;261998;1093;25797;-69
2021/06/24 07:55:34;;;;;;;30.50;27.23;;;;;;;26.21;67.65;98760.94;260418;1093;28274;-70
2021/06/24 08:00:38;;;;;;;35.00;30.53;;;;;;;26.48;67.54;98758.52;260639;1093;24293;-69
2021/06/24 08:06:04;;;;;;;32.23;28.75;;;;;;;26.61;66.47;98750.64;260322;1092;22961;-70
2021/06/24 08:11:08;;;;;;;35.07;28.87;;;;;;;26.89;66.99;98741.55;259988;1092;22750;-69
2021/06/24 08:16:11;;;;;;;33.70;27.98;;;;;;;27.14;66.16;98748.88;260056;1093;24026;-70
2021/06/24 08:21:15;;;;;;;33.73;29.15;;;;;;;27.43;65.76;98744.02;260360;1093;25761;-70
2021/06/24 08:26:18;;;;;;;31.78;27.80;;;;;;;27.89;65.47;98741.34;260685;1093;22816;-71
2021/06/24 08:31:22;;;;;;;33.98;29.83;;;;;;;28.26;64.32;98729.62;260621;1093;25851;-70
2021/06/24 08:36:26;;;;;;;33.73;30.15;;;;;;;28.62;62.99;98743.02;260656;1092;25954;-70
2021/06/24 08:41:29;;;;;;;31.63;28.33;;;;;;;28.63;62.03;98735.55;262169;1092;26066;-70
2021/06/24 08:46:34;;;;;;;31.33;27.97;;;;;;;28.41;61.24;98740.48;262937;1092;23074;-76
2021/06/24 08:51:40;;;;;;;34.75;30.03;;;;;;;28.19;61.92;98739.91;263015;1091;22918;-77
2021/06/24 08:56:43;;;;;;;33.20;29.58;;;;;;;28.15;61.71;98739.96;264220;1092;22754;-74
2021/06/24 09:02:00;;;;;;;32.70;28.93;;;;;;;28.26;62.22;98739.84;264504;1092;24586;-76
2021/06/24 09:07:20;;;;;;;33.43;29.83;;;;;;;28.35;61.88;98748.41;264122;1092;22869;-75
2021/06/24 09:12:37;;;;;;;33.15;29.60;;;;;;;28.67;62.01;98737.05;264767;1093;23990;-76
2021/06/24 09:18:02;;;;;;;;;;;;;;;28.92;61.08;98735.17;264025;1091;22759;-76
2021/06/24 09:23:20;;;;;;;31.05;27.75;;;;;;;29.38;60.93;98731.05;263970;1091;25780;-75
2021/06/24 09:28:39;;;;;;;33.85;30.25;;;;;;;29.60;60.68;98727.95;263443;1093;22740;-76
2021/06/24 09:33:43;;;;;;;36.20;32.23;;;;;;;29.77;59.41;98724.09;263133;1091;22837;-76
2021/06/24 09:38:51;;;;;;;31.40;28.10;;;;;;;29.83;58.75;98729.95;263855;1092;24059;-74
2021/06/24 09:43:55;;;;;;;35.48;31.28;;;;;;;29.92;59.11;98727.44;263519;1092;24047;-77
2021/06/24 09:49:01;;;;;;;35.78;32.10;;;;;;;30.16;58.67;98716.38;263236;1093;24146;-77
2021/06/24 09:54:15;;;;;;;35.83;32.03;;;;;;;30.28;58.65;98721.28;263251;1092;22847;-74
2021/06/24 09:59:19;;;;;;;33.95;30.35;;;;;;;30.57;57.88;98718.00;264662;1093;22747;-79
2021/06/24 10:04:29;;;;;;;34.65;30.10;;;;;;;30.86;57.49;98707.13;264795;1093;22779;-79
2021/06/24 10:09:32;;;;;;;34.00;30.40;;;;;;;30.99;56.69;98720.27;264834;1093;22861;-79
2021/06/24 10:14:37;;;;;;;31.88;28.43;;;;;;;31.20;56.10;98713.52;264739;1092;23035;-77
2021/06/24 10:19:45;;;;;;;32.93;29.43;;;;;;;30.88;55.23;98707.47;264588;1092;23167;-77
2021/06/24 10:25:03;;;;;;;32.43;29.10;;;;;;;31.04;56.17;98700.45;263575;1091;24120;-77
2021/06/24 10:30:17;;;;;;;33.03;29.28;;;;;;;31.18;55.05;98708.41;264112;1092;27738;-79
2021/06/24 10:35:32;;;;;;;33.20;29.10;;;;;;;31.29;54.64;98697.11;264017;1092;23333;-78
2021/06/24 10:40:43;;;;;;;31.45;28.13;;;;;;;31.21;54.81;98692.95;263442;1092;22917;-79
2021/06/24 10:45:47;;;;;;;33.38;29.75;;;;;;;31.32;55.38;98695.47;262774;1092;22884;-80
2021/06/24 10:51:11;;;;;;;30.95;27.63;;;;;;;31.58;55.20;98685.39;263116;1092;22872;-79
2021/06/24 10:56:32;;;;;;;29.93;26.85;;;;;;;31.76;54.42;98693.25;262940;1092;22891;-81
2021/06/24 11:01:50;;;;;;;32.15;28.85;;;;;;;31.35;54.09;98675.23;263527;1092;23555;-80
2021/06/24 11:06:55;;;;;;;30.60;27.43;;;;;;;31.55;54.28;98664.09;263643;1092;22773;-80
2021/06/24 11:11:59;;;;;;;28.65;25.68;;;;;;;31.96;54.38;98667.42;263247;1091;23363;-81
2021/06/24 11:17:43;;;;;;;29.10;25.95;;;;;;;32.09;53.25;98657.16;263570;1093;25931;-81
2021/06/24 11:22:52;;;;;;;29.33;26.00;;;;;;;32.00;52.68;98655.03;263888;1092;25790;-79
2021/06/24 11:28:36;;;;;;;26.13;23.55;;;;;;;31.98;52.52;98662.22;263330;1092;22889;-77
2021/06/24 11:33:55;;;;;;;26.87;24.07;;;;;;;32.21;52.38;98645.38;263174;1092;22769;-79
2021/06/24 11:38:58;;;;;;;21.85;19.60;;;;;;;32.33;50.98;98645.84;264543;1092;22778;-79
2021/06/24 11:44:05;;;;;;;26.38;23.58;;;;;;;31.93;51.12;98640.58;262960;1093;22889;-80
2021/06/24 12:05:24;;;;;;;24.00;21.50;;;;;;;31.74;51.69;98618.13;262235;1092;23329;-77
2021/06/24 12:10:29;;;;;;;23.05;20.83;;;;;;;31.52;51.10;98624.21;262168;1093;22843;-77
2021/06/24 12:15:34;;;;;;;23.73;21.48;;;;;;;31.69;51.75;98621.42;262177;1092;22774;-77
2021/06/24 12:20:37;;;;;;;21.80;19.75;;;;;;;31.83;51.00;98618.30;262051;1093;22947;-72
2021/06/24 12:26:10;;;;;;;22.55;20.33;;;;;;;31.92;51.20;98609.34;262339;1092;27050;-74
2021/06/24 12:31:23;;;;;;;23.40;21.05;;;;;;;31.97;50.47;98608.02;262169;1093;22766;-75
2021/06/24 12:36:36;;;;;;;23.20;20.90;;;;;;;32.04;50.61;98614.16;262181;1092;22854;-74
2021/06/24 12:41:44;;;;;;;20.90;18.90;;;;;;;32.05;50.25;98612.16;262380;1092;25648;-74
2021/06/24 12:46:47;;;;;;;23.68;21.35;;;;;;;31.84;50.22;98607.98;262238;1092;23428;-75
2021/06/24 12:51:50;;;;;;;25.00;22.43;;;;;;;31.90;50.93;98601.48;262054;1092;25254;-74
2021/06/24 12:56:54;;;;;;;22.75;20.45;;;;;;;32.04;50.33;98599.52;262222;1091;25803;-74
2021/06/24 13:02:03;;;;;;;22.53;20.23;;;;;;;31.89;50.58;98593.61;262129;1092;22914;-74
2021/06/24 13:07:08;;;;;;;23.75;21.40;;;;;;;31.77;50.34;98595.10;262160;1093;22907;-75
2021/06/24 13:12:16;;;;;;;26.80;21.40;;;;;;;31.68;50.59;98594.97;262383;1093;25902;-74
2021/06/24 13:17:25;;;;;;;23.50;20.88;;;;;;;31.62;50.03;98586.42;262367;1093;26401;-74
2021/06/24 13:22:30;;;;;;;22.80;20.68;;;;;;;31.90;50.64;98590.40;262142;1093;24114;-74
2021/06/24 13:27:38;;;;;;;21.53;19.48;;;;;;;32.19;50.17;98588.84;262309;1091;23392;-74
2021/06/24 13:32:50;;;;;;;20.63;18.63;;;;;;;32.48;49.94;98574.15;262368;1092;23229;-74
2021/06/24 13:38:12;;;;;;;21.65;19.55;;;;;;;32.69;48.77;98569.97;262920;1092;25865;-73
2021/06/24 13:43:22;;;;;;;21.83;19.73;;;;;;;32.75;48.45;98568.98;262569;1092;24045;-74
2021/06/24 13:48:28;;;;;;;21.30;19.25;;;;;;;32.72;48.54;98555.97;263341;1092;22766;-74
2021/06/24 13:53:32;;;;;;;21.10;19.18;;;;;;;32.80;48.22;98559.31;262192;1093;24036;-74
2021/06/24 13:58:36;;;;;;;22.03;19.78;;;;;;;32.29;47.63;98546.20;262424;1092;26331;-72
2021/06/24 14:03:45;;;;;;;22.05;19.78;;;;;;;31.81;48.36;98554.25;265606;1092;25450;-73
2021/06/24 14:08:49;;;;;;;23.25;21.00;;;;;;;31.62;48.97;98555.17;264945;1091;25621;-73
2021/06/24 14:13:52;;;;;;;23.00;20.77;;;;;;;31.80;49.66;98549.16;262618;1091;22759;-73
2021/06/24 14:18:57;;;;;;;22.53;20.25;;;;;;;32.02;49.43;98538.25;262174;1092;23372;-74
2021/06/24 14:24:00;;;;;;;25.33;21.90;;;;;;;31.98;49.80;98540.34;262090;1092;25149;-74
2021/06/24 14:29:10;;;;;;;23.70;21.25;;;;;;;31.71;50.03;98541.48;261924;1093;27102;-74
2021/06/24 14:34:13;;;;;;;23.02;20.90;;;;;;;31.33;50.28;98525.48;262101;1091;22815;-74
2021/06/24 14:39:16;;;;;;;24.13;21.73;;;;;;;31.00;50.84;98525.48;262160;1092;24190;-74
2021/06/24 14:44:20;;;;;;;24.65;22.15;;;;;;;30.68;51.78;98527.03;261916;1093;22886;-74
2021/06/24 14:49:33;;;;;;;24.98;21.65;;;;;;;30.40;52.42;98493.28;262027;1093;23471;-74
2021/06/24 14:54:36;;;;;;;26.40;23.48;;;;;;;30.15;52.85;98486.36;261999;1093;24235;-74
2021/06/24 14:59:40;;;;;;;25.68;23.00;;;;;;;30.01;53.12;98501.25;261833;1091;22791;-74
2021/06/24 15:04:44;;;;;;;26.15;23.58;;;;;;;29.81;53.55;98483.89;261934;1093;22779;-74
2021/06/24 15:09:48;;;;;;;26.48;23.75;;;;;;;29.64;54.16;98461.73;261772;1093;22903;-74
2021/06/24 15:14:52;;;;;;;28.15;24.83;;;;;;;29.56;54.58;98479.64;262009;1092;22982;-74
2021/06/24 15:19:55;;;;;;;28.25;25.35;;;;;;;29.40;55.74;98454.75;262031;1093;25858;-74
2021/06/24 15:24:58;;;;;;;27.63;24.83;;;;;;;29.09;56.63;98433.61;262036;1093;25992;-74
2021/06/24 15:30:03;;;;;;;27.43;23.27;;;;;;;28.83;56.88;98380.89;261886;1092;24777;-75
2021/06/24 15:35:20;;;;;;;27.03;23.90;;;;;;;28.65;57.52;98358.39;261947;1092;22770;-74
2021/06/24 15:40:40;;;;;;;23.85;21.38;;;;;;;28.45;58.03;98427.95;261985;1092;25946;-73
2021/06/24 15:45:44;;;;;;;25.58;22.93;;;;;;;28.26;58.60;98431.41;261938;1093;22942;-74
2021/06/24 15:51:02;;;;;;;26.05;22.78;;;;;;;28.11;59.38;98434.38;262054;1093;22814;-75
2021/06/24 15:56:18;;;;;;;30.03;24.15;;;;;;;28.05;60.39;98414.02;262158;1092;24421;-74
2021/06/24 16:01:21;;;;;;;18.88;14.50;;;;;;;28.13;58.80;98433.95;262071;1093;22914;-74
2021/06/24 16:06:25;;;;;;;12.55;8.60;;;;;;;28.05;57.10;98458.06;262051;1092;25784;-73
2021/06/24 16:11:33;;;;;;;12.63;8.45;;;;;;;27.91;56.78;98460.95;262229;1093;23119;-74
2021/06/24 16:16:38;;;;;;;12.25;8.70;;;;;;;27.63;56.56;98460.92;262106;1093;22911;-73
2021/06/24 16:21:41;;;;;;;11.95;7.63;;;;;;;27.13;55.83;98459.45;262109;1092;23339;-74
2021/06/24 16:26:46;;;;;;;8.27;5.73;;;;;;;26.79;55.30;98457.41;261916;1093;22779;-74
2021/06/24 16:31:49;;;;;;;9.55;6.65;;;;;;;26.45;55.61;98490.20;261918;1092;25262;-74
2021/06/24 16:36:54;;;;;;;13.28;6.75;;;;;;;26.18;56.13;98490.75;262035;1093;26270;-74
2021/06/24 16:42:07;;;;;;;10.65;6.55;;;;;;;25.87;57.54;98484.98;262206;1092;22808;-75
2021/06/24 16:47:30;;;;;;;15.83;7.33;;;;;;;25.46;59.38;98469.05;262103;1091;25796;-74
2021/06/24 16:52:34;;;;;;;12.63;7.33;;;;;;;24.99;60.82;98491.03;262019;1092;24311;-76
2021/06/24 16:57:38;;;;;;;14.58;8.20;;;;;;;24.56;61.52;98480.80;261835;1093;22859;-75
2021/06/24 17:02:42;;;;;;;12.87;8.50;;;;;;;24.28;63.22;98472.56;262398;1092;26363;-74
2021/06/24 17:07:46;;;;;;;11.45;8.50;;;;;;;24.04;64.46;98464.67;261933;1093;22861;-75
2021/06/24 17:12:57;;;;;;;13.20;8.73;;;;;;;23.91;65.81;98463.48;262068;1092;22897;-75
2021/06/24 17:18:08;;;;;;;15.68;8.88;;;;;;;23.82;66.23;98443.87;262196;1093;24214;-75
2021/06/24 17:23:11;;;;;;;14.28;9.43;;;;;;;23.78;66.92;98454.01;262189;1091;22853;-74
2021/06/24 17:28:14;;;;;;;18.05;10.83;;;;;;;23.70;67.77;98453.98;262233;1092;25842;-75
2021/06/24 17:33:18;;;;;;;17.28;12.78;;;;;;;23.67;68.38;98405.55;262307;1093;25943;-74
2021/06/24 17:38:35;;;;;;;18.93;13.48;;;;;;;23.61;69.66;98379.73;262184;1091;22909;-74
2021/06/24 17:43:39;;;;;;;17.88;13.93;;;;;;;23.59;70.97;98406.68;262252;1091;22964;-75
2021/06/24 17:48:42;;;;;;;18.33;14.45;;;;;;;23.63;72.43;98407.48;262223;1093;23542;-74
2021/06/24 17:53:45;;;;;;;19.65;14.08;;;;;;;23.68;74.45;98400.84;262275;1092;22764;-75
2021/06/24 17:58:49;;;;;;;15.93;13.15;;;;;;;23.73;74.68;98455.17;262142;1093;26130;-76
2021/06/24 18:03:59;;;;;;;17.95;12.73;;;;;;;23.84;75.77;98488.81;262231;1092;22902;-75
2021/06/24 18:09:06;;;;;;;17.63;14.18;;;;;;;23.87;75.50;98468.13;262180;1092;22782;-75
2021/06/24 18:14:10;;;;;;;19.68;13.98;;;;;;;23.74;76.00;98454.78;262202;1092;22804;-75
2021/06/24 18:19:15;;;;;;;17.23;15.20;;;;;;;23.66;78.31;98496.13;262274;1093;22799;-75
2021/06/24 18:24:20;;;;;;;15.18;12.50;;;;;;;23.57;78.10;98510.15;262157;1091;22809;-75
2021/06/24 18:29:24;;;;;;;19.08;14.68;;;;;;;23.34;77.26;98486.59;262000;1091;23524;-74
2021/06/24 18:34:27;;;;;;;14.05;10.35;;;;;;;22.75;76.36;98392.90;261816;1093;25989;-74
2021/06/24 18:39:31;;;;;;;14.83;9.40;;;;;;;21.85;76.42;98548.26;261926;1092;23045;-77
2021/06/24 18:44:34;;;;;;;13.90;8.90;;;;;;;21.31;79.30;98602.73;262507;1093;22850;-79
2021/06/24 18:49:37;;;;;;;18.45;9.63;;;;;;;21.09;80.49;98620.66;263523;1092;22779;-81
2021/06/24 18:54:41;;;;;;;10.48;7.35;;;;;;;20.68;80.47;98588.42;263967;1092;26004;-81
2021/06/24 18:59:45;;;;;;;8.83;5.80;;;;;;;20.28;80.78;98588.78;263190;1093;22930;-76
2021/06/24 19:04:48;;;;;;;12.47;7.00;;;;;;;19.94;81.23;98722.45;261819;1092;22786;-78
2021/06/24 19:09:52;;;;;;;6.25;4.25;;;;;;;19.50;82.76;98537.77;261985;1093;26043;-74
2021/06/24 19:15:10;;;;;;;12.90;9.47;;;;;;;19.12;85.18;98729.27;261763;1092;24295;-77
2021/06/24 19:20:34;;;;;;;11.93;8.70;;;;;;;18.99;85.33;98763.81;262224;1092;22738;-78
2021/06/24 19:25:38;;;;;;;11.20;8.25;;;;;;;18.88;85.07;98675.88;262310;1092;22921;-78
2021/06/24 19:30:42;;;;;;;7.95;6.65;;;;;;;18.77;85.38;98621.28;262186;1093;22851;-76
2021/06/24 19:35:45;;;;;;;15.20;12.30;;;;;;;18.80;86.71;98571.73;262033;1092;25967;-77
2021/06/24 19:40:49;;;;;;;22.65;15.25;;;;;;;18.89;87.16;98569.69;262769;1091;22793;-78
2021/06/24 19:45:53;;;;;;;25.95;17.40;;;;;;;18.98;87.39;98578.47;262979;1092;22738;-79
2021/06/24 19:50:56;;;;;;;21.30;16.40;;;;;;;19.07;87.58;98526.70;262936;1093;23309;-79
2021/06/24 19:56:00;;;;;;;19.00;14.67;;;;;;;19.11;86.67;98494.20;263671;1092;25981;-80
2021/06/24 20:01:04;;;;;;;22.13;16.30;;;;;;;19.16;87.34;98567.25;265237;1091;24182;-81
2021/06/24 20:06:21;;;;;;;29.03;16.13;;;;;;;19.19;87.46;98658.08;266054;1092;25771;-81
2021/06/24 20:11:35;;;;;;;14.60;11.40;;;;;;;19.18;88.27;98697.22;264228;1092;22772;-77
2021/06/24 20:16:39;;;;;;;15.65;12.00;;;;;;;19.11;88.35;98765.69;262073;1091;25986;-78
2021/06/24 20:21:42;;;;;;;15.17;11.90;;;;;;;19.08;88.62;98766.38;262498;1092;22815;-79
2021/06/24 20:26:47;;;;;;;14.67;11.30;;;;;;;19.12;89.28;98753.70;263760;1091;23282;-81
2021/06/24 20:31:50;;;;;;;18.60;13.25;;;;;;;19.18;89.63;98722.47;264612;1093;22911;-81
2021/06/24 20:36:56;;;;;;;20.80;13.80;;;;;;;19.30;89.65;98735.17;263862;1091;25729;-82
2021/06/24 20:42:00;;;;;;;17.30;13.53;;;;;;;19.40;89.68;98788.20;263371;1093;22770;-84
2021/06/24 20:47:04;;;;;;;20.63;14.70;;;;;;;19.42;89.35;98840.24;263578;1092;22914;-83
2021/06/24 20:52:07;;;;;;;21.47;14.57;;;;;;;19.41;89.50;98844.12;263410;1093;22786;-84
2021/06/24 20:57:12;;;;;;;19.95;14.15;;;;;;;19.38;89.27;98833.95;263649;1092;22775;-86
2021/06/24 21:02:24;;;;;;;16.17;13.17;;;;;;;19.33;89.46;98837.68;263432;1092;22773;-85
2021/06/24 21:08:07;;;;;;;17.95;13.65;;;;;;;19.36;89.63;98796.25;263295;1093;23270;-85
2021/06/24 21:13:42;;;;;;;17.27;13.10;;;;;;;19.31;89.68;98590.89;263505;1093;22866;-86
2021/06/24 21:18:46;;;;;;;13.67;9.93;;;;;;;19.14;90.06;98556.73;263549;1092;22776;-84
2021/06/24 21:23:50;;;;;;;53.40;18.33;;;;;;;19.01;89.92;98449.38;264149;1093;22842;-83
2021/06/24 21:28:59;;;;;;;23.97;11.50;;;;;;;18.90;90.18;98484.43;263949;1092;22778;-84
2021/06/24 21:34:03;;;;;;;;;;;;;;;18.83;90.70;98465.23;264263;1091;22638;-85
2021/06/24 21:39:20;;;;;;;16.43;9.53;;;;;;;18.75;91.20;98423.56;264180;1091;21462;-84
2021/06/24 21:44:47;;;;;;;14.25;9.15;;;;;;;18.67;90.78;98437.31;263789;1092;24340;-84
2021/06/24 21:49:52;;;;;;;14.20;8.70;;;;;;;18.59;90.95;98377.47;263777;1093;22979;-85
2021/06/24 21:54:56;;;;;;;17.05;11.65;;;;;;;18.51;90.85;98370.30;263938;1093;22750;-84
2021/06/24 21:59:59;;;;;;;8.40;7.35;;;;;;;18.46;91.50;98329.88;263710;1092;22790;-85
2021/06/24 22:05:02;;;;;;;18.15;11.20;;;;;;;18.43;91.42;98235.67;263673;1093;22885;-85
2021/06/24 22:11:12;;;;;;;13.70;10.65;;;;;;;18.36;91.48;98157.66;263653;1093;22910;-86
2021/06/24 22:17:43;;;;;;;15.05;9.75;;;;;;;18.33;91.37;98331.09;263854;1092;22927;-85
2021/06/24 22:24:28;;;;;;;22.00;11.20;;;;;;;18.35;91.82;98431.87;263866;1093;25962;-84
2021/06/24 22:31:32;;;;;;;10.45;7.80;;;;;;;18.36;93.93;98533.78;263972;1092;22768;-85
2021/06/24 22:37:21;;;;;;;13.37;8.63;;;;;;;18.32;93.88;98522.05;263747;1093;22777;-85
2021/06/24 22:42:34;;;;;;;11.50;6.75;;;;;;;18.29;93.54;98535.14;264036;1092;22793;-84
2021/06/24 22:47:37;;;;;;;14.35;9.65;;;;;;;18.30;94.11;98571.98;264139;1092;22784;-82
2021/06/24 22:52:41;;;;;;;13.50;9.45;;;;;;;18.33;93.84;98583.25;264039;1092;22789;-82
2021/06/24 22:57:45;;;;;;;12.85;9.20;;;;;;;18.34;93.94;98593.78;263993;1092;26342;-81
2021/06/24 23:02:48;;;;;;;19.40;12.45;;;;;;;18.34;93.64;98582.94;264452;1092;22846;-81
2021/06/24 23:07:56;;;;;;;16.07;10.57;;;;;;;18.39;93.51;98552.06;264264;1093;22722;-80
2021/06/24 23:13:09;;;;;;;18.45;11.65;;;;;;;18.43;93.80;98571.94;264130;1092;26876;-81
2021/06/24 23:18:16;;;;;;;18.15;13.15;;;;;;;18.50;94.21;98561.27;263863;1092;25935;-80
2021/06/24 23:23:20;;;;;;;21.60;14.70;;;;;;;18.61;95.06;98532.51;263982;1092;22874;-80
2021/06/24 23:28:23;;;;;;;19.30;13.35;;;;;;;18.67;94.71;98538.47;263939;1093;22908;-80
2021/06/24 23:33:27;;;;;;;25.65;15.35;;;;;;;18.74;94.86;98535.16;263052;1093;22848;-79
2021/06/24 23:38:30;;;;;;;25.40;17.85;;;;;;;18.72;94.35;98554.50;263576;1092;25877;-79
2021/06/24 23:43:35;;;;;;;31.60;20.45;;;;;;;18.73;94.09;98545.23;263207;1093;25790;-79
2021/06/24 23:48:38;;;;;;;28.65;21.00;;;;;;;18.78;94.20;98504.25;263056;1093;22783;-79
2021/06/24 23:53:41;;;;;;;29.58;21.75;;;;;;;18.95;95.59;98516.72;263014;1093;28372;-80
2021/06/24 23:58:44;;;;;;;34.47;23.77;;;;;;;19.08;96.48;98516.63;263432;1092;25781;-80
